createdAt,value
2022-09-01T00:01:39.201Z,94.47
2022-09-01T00:04:08.881Z,90.88
2022-09-01T00:06:40.861Z,89.88
2022-09-01T00:09:13.478Z,85.38
2022-09-01T00:11:42.431Z,94.55
2022-09-01T00:14:29.320Z,84.68
2022-09-01T00:16:58.884Z,79.47
2022-09-01T00:19:26.552Z,88.03
2022-09-01T00:21:55.392Z,73.25
2022-09-01T00:24:25.975Z,83.45
2022-09-01T00:26:54.556Z,83.72
2022-09-01T00:29:22.405Z,84.18
2022-09-01T00:31:50.626Z,88.45
2022-09-01T00:34:18.452Z,96.82
2022-09-01T00:36:46.258Z,81.50
2022-09-01T00:39:16.814Z,90.82
2022-09-01T00:41:46.972Z,86.18
2022-09-01T00:44:17.179Z,87.53
2022-09-01T00:46:49.910Z,78.28
2022-09-01T00:49:29.643Z,80.35
2022-09-01T00:52:02.430Z,83.97
2022-09-01T00:54:34.969Z,82.25
2022-09-01T00:57:04.440Z,81.78
2022-09-01T00:59:33.148Z,83.45
2022-09-01T01:02:00.811Z,76.20
2022-09-01T01:04:30.179Z,79.40
2022-09-01T01:07:02.194Z,79.80
2022-09-01T01:09:35.677Z,75.10
2022-09-01T01:12:06.309Z,84.75
2022-09-01T01:14:36.889Z,94.97
2022-09-01T01:17:05.064Z,85.90
2022-09-01T01:19:59.867Z,77.90
2022-09-01T01:22:58.007Z,84.90
2022-09-01T01:25:26.918Z,91.13
2022-09-01T01:28:05.369Z,77.53
2022-09-01T01:30:36.867Z,86.10
2022-09-01T01:33:05.662Z,86.97
2022-09-01T01:35:34.040Z,86.45
2022-09-01T01:38:03.593Z,92.53
2022-09-01T01:40:32.482Z,95.18
2022-09-01T01:43:01.192Z,92.13
2022-09-01T01:45:30.095Z,85.28
2022-09-01T01:47:57.721Z,95.70
2022-09-01T01:50:29.603Z,85.25
2022-09-01T01:53:00.034Z,86.05
2022-09-01T01:55:28.923Z,89.38
2022-09-01T01:57:59.101Z,91.82
2022-09-01T02:00:30.928Z,87.90
2022-09-01T02:02:58.900Z,84.03
2022-09-01T02:05:29.865Z,79.00
2022-09-01T02:08:01.713Z,79.20
2022-09-01T02:10:31.545Z,76.50
2022-09-01T02:13:05.883Z,73.85
2022-09-01T02:15:44.165Z,72.88
2022-09-01T02:18:14.209Z,76.03
2022-09-01T02:20:42.105Z,67.70
2022-09-01T02:23:10.694Z,79.70
2022-09-01T02:26:05.070Z,84.07
2022-09-01T02:28:36.820Z,80.78
2022-09-01T02:31:08.935Z,86.95
2022-09-01T02:33:39.216Z,94.90
2022-09-01T02:36:09.556Z,75.47
2022-09-01T02:38:38.795Z,75.05
2022-09-01T02:41:07.920Z,76.38
2022-09-01T02:43:36.752Z,76.10
2022-09-01T02:46:06.270Z,93.07
2022-09-01T02:48:37.293Z,79.85
2022-09-01T02:51:08.402Z,85.30
2022-09-01T02:53:36.760Z,81.38
2022-09-01T02:56:09.472Z,92.03
2022-09-01T02:58:45.966Z,72.05
2022-09-01T03:01:22.614Z,85.85
2022-09-01T03:03:51.601Z,79.45
2022-09-01T03:06:24.033Z,93.43
2022-09-01T03:08:52.942Z,84.38
2022-09-01T03:11:20.597Z,82.65
2022-09-01T03:13:49.431Z,90.00
2022-09-01T03:16:17.104Z,97.80
2022-09-01T03:18:44.607Z,79.00
2022-09-01T03:21:16.994Z,89.35
2022-09-01T03:23:45.713Z,83.88
2022-09-01T03:26:14.143Z,80.32
2022-09-01T03:28:42.107Z,80.35
2022-09-01T03:31:11.034Z,84.53
2022-09-01T03:33:38.807Z,87.68
2022-09-01T03:36:14.916Z,84.60
2022-09-01T03:38:44.054Z,85.45
2022-09-01T03:41:13.163Z,90.70
2022-09-01T03:43:47.015Z,95.68
2022-09-01T03:46:20.173Z,93.68
2022-09-01T03:48:49.022Z,86.82
2022-09-01T03:51:16.616Z,90.55
2022-09-01T03:53:45.197Z,79.07
2022-09-01T03:56:14.028Z,85.22
2022-09-01T03:58:44.964Z,95.03
2022-09-01T04:01:13.928Z,86.65
2022-09-01T04:03:46.865Z,88.43
2022-09-01T04:06:14.979Z,85.25
2022-09-01T04:08:42.974Z,82.22
2022-09-01T04:11:16.396Z,84.72
2022-09-01T04:13:43.965Z,82.97
2022-09-01T04:16:33.627Z,87.22
2022-09-01T04:19:08.154Z,83.35
2022-09-01T04:21:35.654Z,84.93
2022-09-01T04:24:05.573Z,89.88
2022-09-01T04:26:33.824Z,84.78
2022-09-01T04:29:01.361Z,85.43
2022-09-01T04:31:30.784Z,84.28
2022-09-01T04:33:58.384Z,89.30
2022-09-01T04:36:30.704Z,85.10
2022-09-01T04:39:00.688Z,90.80
2022-09-01T04:41:31.470Z,82.95
2022-09-01T04:44:01.347Z,86.50
2022-09-01T04:46:31.288Z,89.85
2022-09-01T04:48:59.578Z,99.53
2022-09-01T04:51:28.409Z,86.10
2022-09-01T04:53:57.402Z,82.82
2022-09-01T04:56:27.817Z,90.60
2022-09-01T04:58:55.874Z,91.65
2022-09-01T05:01:25.499Z,86.82
2022-09-01T05:04:01.369Z,70.80
2022-09-01T05:06:34.533Z,84.85
2022-09-01T05:09:02.037Z,87.97
2022-09-01T05:11:29.509Z,91.75
2022-09-01T05:13:57.778Z,92.93
2022-09-01T05:16:25.936Z,85.22
2022-09-01T05:18:56.860Z,91.70
2022-09-01T05:21:28.231Z,85.97
2022-09-01T05:24:00.684Z,88.25
2022-09-01T05:26:31.456Z,90.32
2022-09-01T05:29:01.777Z,93.82
2022-09-01T05:31:37.493Z,95.60
2022-09-01T05:34:05.416Z,91.80
2022-09-01T05:36:33.508Z,104.47
2022-09-01T05:39:03.175Z,92.90
2022-09-01T05:41:30.754Z,88.75
2022-09-01T05:44:00.874Z,84.47
2022-09-01T05:46:29.800Z,72.28
2022-09-01T05:48:59.401Z,71.80
2022-09-01T05:51:46.296Z,62.17
2022-09-01T05:54:21.476Z,69.25
2022-09-01T05:56:49.820Z,94.28
2022-09-01T05:59:26.102Z,63.88
2022-09-01T06:01:55.009Z,78.50
2022-09-01T06:04:25.262Z,87.35
2022-09-01T06:07:10.257Z,82.60
2022-09-01T06:09:44.107Z,85.97
2022-09-01T06:12:17.396Z,71.13
2022-09-01T06:14:45.812Z,85.50
2022-09-01T06:17:16.259Z,88.28
2022-09-01T06:19:44.312Z,79.53
2022-09-01T06:22:12.203Z,80.72
2022-09-01T06:24:43.643Z,62.47
2022-09-01T06:27:13.176Z,67.03
2022-09-01T06:29:41.642Z,65.40
2022-09-01T06:32:10.686Z,71.00
2022-09-01T06:34:42.344Z,54.50
2022-09-01T06:37:10.861Z,43.65
2022-09-01T06:39:38.606Z,42.67
2022-09-01T06:42:09.468Z,56.00
2022-09-01T06:44:40.593Z,45.22
2022-09-01T06:47:09.031Z,46.13
2022-09-01T06:49:40.237Z,62.15
2022-09-01T06:52:07.755Z,42.38
2022-09-01T06:54:39.113Z,60.28
2022-09-01T06:59:56.051Z,57.38
2022-09-01T07:02:27.096Z,91.85
2022-09-01T07:04:55.108Z,79.90
2022-09-01T07:10:21.290Z,81.18
2022-09-01T07:13:08.627Z,85.25
2022-09-01T07:18:30.736Z,60.85
2022-09-01T07:21:36.115Z,64.03
2022-09-01T07:24:06.068Z,58.45
2022-09-01T07:26:35.946Z,91.95
2022-09-01T07:29:07.092Z,114.07
2022-09-01T07:34:46.228Z,62.13
2022-09-01T07:38:46.848Z,97.35
2022-09-01T07:43:12.786Z,125.90
2022-09-01T07:45:47.718Z,92.55
2022-09-01T07:49:01.051Z,103.45
2022-09-01T07:51:35.643Z,111.05
2022-09-01T07:53:55.694Z,66.07
2022-09-01T07:56:25.804Z,105.00
2022-09-01T07:58:53.831Z,56.70
2022-09-01T08:01:26.053Z,67.32
2022-09-01T08:03:55.585Z,64.22
2022-09-01T08:06:27.215Z,64.68
2022-09-01T08:08:57.952Z,73.28
2022-09-01T08:11:58.124Z,64.97
2022-09-01T08:14:18.187Z,67.10
2022-09-01T08:16:54.588Z,73.13
2022-09-01T08:19:23.002Z,64.38
2022-09-01T08:21:50.531Z,70.65
2022-09-01T08:24:19.134Z,53.45
2022-09-01T08:26:46.641Z,62.17
2022-09-01T08:29:14.107Z,55.17
2022-09-01T08:31:41.669Z,47.33
2022-09-01T08:34:12.701Z,51.80
2022-09-01T08:36:40.211Z,53.03
2022-09-01T08:39:07.666Z,43.10
2022-09-01T08:41:46.409Z,37.75
2022-09-01T08:44:25.496Z,34.15
2022-09-01T08:46:58.837Z,33.22
2022-09-01T08:49:28.257Z,26.77
2022-09-01T08:52:02.363Z,25.20
2022-09-01T08:54:36.468Z,26.52
2022-09-01T08:57:09.664Z,25.40
2022-09-01T08:59:37.287Z,16.45
2022-09-01T09:02:24.335Z,22.17
2022-09-01T09:05:15.478Z,26.30
2022-09-01T09:08:07.006Z,16.88
2022-09-01T09:10:43.571Z,25.33
2022-09-01T09:13:18.547Z,26.00
2022-09-01T09:16:06.912Z,26.73
2022-09-01T09:18:54.678Z,24.15
2022-09-01T09:21:30.113Z,24.75
2022-09-01T09:24:01.852Z,17.27
2022-09-01T09:26:42.253Z,19.13
2022-09-01T09:29:09.966Z,20.15
2022-09-01T09:31:43.637Z,16.77
2022-09-01T09:34:19.517Z,12.80
2022-09-01T09:36:54.603Z,18.88
2022-09-01T09:39:23.204Z,19.23
2022-09-01T09:42:09.386Z,17.23
2022-09-01T09:44:44.165Z,19.25
2022-09-01T09:47:33.373Z,13.38
2022-09-01T09:50:14.799Z,15.65
2022-09-01T09:52:46.828Z,17.02
2022-09-01T09:55:24.168Z,16.13
2022-09-01T09:57:54.249Z,18.95
2022-09-01T10:00:25.560Z,20.35
2022-09-01T10:02:57.212Z,17.65
2022-09-01T10:05:40.252Z,12.15
2022-09-01T10:08:11.605Z,13.02
2022-09-01T10:10:42.945Z,12.55
2022-09-01T10:13:13.972Z,10.77
2022-09-01T10:15:44.907Z,13.13
2022-09-01T10:18:32.056Z,13.38
2022-09-01T10:21:02.273Z,11.43
2022-09-01T10:23:37.005Z,11.65
2022-09-01T10:26:10.399Z,19.38
2022-09-01T10:28:49.893Z,13.65
2022-09-01T10:31:19.138Z,12.25
2022-09-01T10:33:47.113Z,16.00
2022-09-01T10:36:16.754Z,9.40
2022-09-01T10:38:53.961Z,10.10
2022-09-01T10:41:48.207Z,12.85
2022-09-01T10:44:21.083Z,15.02
2022-09-01T10:46:51.058Z,14.70
2022-09-01T10:49:38.852Z,17.13
2022-09-01T10:52:13.059Z,15.27
2022-09-01T10:55:00.185Z,14.13
2022-09-01T10:58:07.810Z,16.92
2022-09-01T11:04:00.664Z,22.20
2022-09-01T11:07:13.896Z,16.75
2022-09-01T11:09:43.872Z,15.73
2022-09-01T11:12:45.025Z,15.73
2022-09-01T11:15:36.657Z,13.45
2022-09-01T11:18:11.584Z,11.43
2022-09-01T11:20:42.661Z,12.43
2022-09-01T11:23:14.930Z,12.95
2022-09-01T11:25:45.643Z,11.30
2022-09-01T11:28:41.814Z,9.73
2022-09-01T11:31:28.953Z,9.77
2022-09-01T11:34:04.076Z,8.32
2022-09-01T11:36:35.998Z,10.18
2022-09-01T11:39:16.068Z,11.57
2022-09-01T11:41:57.506Z,11.90
2022-09-01T11:44:37.213Z,12.63
2022-09-01T11:47:13.665Z,12.23
2022-09-01T11:49:49.945Z,11.90
2022-09-01T11:52:19.408Z,11.93
2022-09-01T11:54:47.400Z,11.43
2022-09-01T11:57:35.021Z,10.02
2022-09-01T12:00:07.849Z,9.07
2022-09-01T12:02:37.471Z,11.07
2022-09-01T12:05:25.934Z,10.32
2022-09-01T12:07:53.975Z,13.13
2022-09-01T12:10:34.133Z,18.60
2022-09-01T12:13:04.400Z,19.65
2022-09-01T12:15:35.056Z,9.88
2022-09-01T12:18:16.977Z,10.73
2022-09-01T12:20:44.492Z,8.65
2022-09-01T12:23:20.441Z,8.57
2022-09-01T12:25:48.279Z,8.23
2022-09-01T12:28:16.876Z,8.88
2022-09-01T12:30:46.014Z,5.38
2022-09-01T12:33:23.632Z,5.28
2022-09-01T12:35:53.211Z,7.28
2022-09-01T12:38:25.830Z,5.07
2022-09-01T12:40:55.514Z,6.75
2022-09-01T12:43:36.887Z,8.82
2022-09-01T12:46:07.101Z,9.63
2022-09-01T12:48:36.721Z,9.00
2022-09-01T12:51:09.380Z,10.07
2022-09-01T12:53:37.261Z,14.00
2022-09-01T12:56:19.720Z,12.57
2022-09-01T12:58:54.376Z,12.38
2022-09-01T13:01:29.946Z,13.13
2022-09-01T13:04:17.294Z,13.40
2022-09-01T13:06:44.775Z,12.93
2022-09-01T13:09:12.333Z,9.52
2022-09-01T13:14:28.438Z,7.80
2022-09-01T13:16:57.890Z,11.15
2022-09-01T13:19:28.841Z,8.82
2022-09-01T13:21:58.242Z,11.23
2022-09-01T13:24:29.328Z,8.07
2022-09-01T13:29:46.503Z,10.80
2022-09-01T13:32:18.721Z,9.45
2022-09-01T13:34:47.710Z,11.50
2022-09-01T13:37:15.703Z,12.88
2022-09-01T13:39:43.205Z,13.35
2022-09-01T13:42:10.720Z,9.30
2022-09-01T13:44:38.591Z,7.13
2022-09-01T13:50:12.024Z,7.10
2022-09-01T13:52:41.363Z,11.73
2022-09-01T13:55:12.914Z,8.57
2022-09-01T13:57:40.547Z,9.00
2022-09-01T14:00:11.643Z,7.63
2022-09-01T14:02:40.605Z,6.50
2022-09-01T14:05:10.548Z,11.80
2022-09-01T14:07:38.136Z,9.90
2022-09-01T14:10:07.498Z,11.57
2022-09-01T14:12:35.452Z,10.63
2022-09-01T14:15:12.249Z,11.70
2022-09-01T14:17:42.892Z,11.63
2022-09-01T14:20:15.991Z,8.07
2022-09-01T14:22:43.575Z,9.63
2022-09-01T14:25:12.045Z,9.80
2022-09-01T14:27:41.067Z,13.70
2022-09-01T14:30:12.035Z,12.50
2022-09-01T14:32:39.643Z,10.38
2022-09-01T14:35:09.002Z,11.15
2022-09-01T14:37:39.178Z,4.43
2022-09-01T14:40:08.875Z,8.68
2022-09-01T14:42:37.162Z,9.40
2022-09-01T14:45:04.962Z,8.88
2022-09-01T14:47:32.496Z,7.60
2022-09-01T14:50:02.378Z,8.57
2022-09-01T14:52:30.588Z,9.50
2022-09-01T14:54:59.629Z,10.13
2022-09-01T14:57:31.301Z,7.25
2022-09-01T15:00:07.293Z,4.55
2022-09-01T15:02:34.793Z,4.78
2022-09-01T15:05:02.332Z,3.17
2022-09-01T15:07:29.964Z,3.50
2022-09-01T15:09:58.870Z,3.72
2022-09-01T15:12:30.825Z,7.25
2022-09-01T15:14:58.823Z,8.15
2022-09-01T15:17:26.647Z,7.38
2022-09-01T15:19:54.168Z,7.55
2022-09-01T15:22:22.041Z,12.48
2022-09-01T15:24:49.535Z,7.80
2022-09-01T15:27:18.356Z,8.82
2022-09-01T15:29:47.909Z,8.25
2022-09-01T15:32:27.341Z,10.30
2022-09-01T15:34:55.205Z,6.25
2022-09-01T15:37:22.753Z,7.95
2022-09-01T15:39:50.231Z,8.73
2022-09-01T15:42:19.054Z,8.52
2022-09-01T15:44:47.302Z,7.93
2022-09-01T15:47:14.820Z,8.82
2022-09-01T15:49:42.375Z,9.48
2022-09-01T15:52:11.219Z,8.73
2022-09-01T15:54:39.869Z,10.60
2022-09-01T15:57:08.962Z,13.15
2022-09-01T15:59:40.028Z,11.05
2022-09-01T16:02:09.692Z,10.55
2022-09-01T16:04:37.580Z,10.25
2022-09-01T16:07:05.269Z,12.15
2022-09-01T16:09:32.909Z,22.58
2022-09-01T16:12:00.450Z,24.42
2022-09-01T16:14:28.276Z,18.55
2022-09-01T16:17:04.164Z,22.63
2022-09-01T16:19:38.570Z,21.38
2022-09-01T16:22:12.899Z,17.73
2022-09-01T16:24:43.396Z,17.05
2022-09-01T16:27:14.717Z,12.15
2022-09-01T16:29:47.796Z,9.68
2022-09-01T16:32:18.511Z,8.55
2022-09-01T16:34:47.964Z,8.90
2022-09-01T16:37:25.279Z,8.70
2022-09-01T16:40:01.044Z,10.00
2022-09-01T16:42:37.635Z,13.07
2022-09-01T16:45:11.829Z,11.80
2022-09-01T16:48:00.039Z,14.80
2022-09-01T16:50:38.571Z,15.52
2022-09-01T16:53:18.703Z,15.35
2022-09-01T16:55:59.562Z,13.60
2022-09-01T16:58:36.549Z,20.38
2022-09-01T17:01:23.028Z,18.33
2022-09-01T17:04:01.495Z,22.92
2022-09-01T17:06:32.046Z,14.77
2022-09-01T17:09:10.026Z,21.25
2022-09-01T17:11:49.205Z,26.85
2022-09-01T17:14:27.762Z,17.42
2022-09-01T17:17:03.152Z,19.23
2022-09-01T17:19:32.346Z,24.80
2022-09-01T17:22:05.308Z,24.95
2022-09-01T17:24:38.450Z,23.17
2022-09-01T17:27:13.997Z,27.92
2022-09-01T17:29:44.819Z,29.75
2022-09-01T17:32:21.806Z,32.65
2022-09-01T17:35:02.612Z,36.40
2022-09-01T17:37:39.270Z,42.63
2022-09-01T17:40:15.277Z,58.28
2022-09-01T17:42:49.644Z,54.80
2022-09-01T17:45:28.839Z,44.80
2022-09-01T17:48:07.576Z,27.63
2022-09-01T17:50:50.832Z,29.63
2022-09-01T17:53:28.680Z,40.70
2022-09-01T17:56:02.736Z,43.40
2022-09-01T17:58:44.116Z,47.60
2022-09-01T18:01:20.606Z,49.17
2022-09-01T18:04:26.763Z,53.53
2022-09-01T18:07:04.023Z,48.10
2022-09-01T18:09:35.758Z,64.40
2022-09-01T18:12:09.745Z,53.17
2022-09-01T18:14:43.197Z,49.83
2022-09-01T18:17:15.768Z,42.70
2022-09-01T18:19:46.643Z,33.75
2022-09-01T18:22:19.724Z,12.52
2022-09-01T18:24:54.319Z,11.23
2022-09-01T18:27:24.203Z,11.43
2022-09-01T18:29:52.959Z,11.45
2022-09-01T18:32:36.762Z,9.20
2022-09-01T18:35:23.982Z,12.15
2022-09-01T18:38:04.776Z,7.78
2022-09-01T18:40:38.368Z,7.60
2022-09-01T18:43:16.707Z,8.63
2022-09-01T18:45:49.538Z,7.28
2022-09-01T18:48:28.473Z,8.77
2022-09-01T18:51:03.397Z,8.73
2022-09-01T18:53:42.451Z,8.15
2022-09-01T18:56:20.555Z,10.20
2022-09-01T18:59:00.412Z,9.07
2022-09-01T19:01:34.395Z,9.15
2022-09-01T19:04:15.128Z,11.55
2022-09-01T19:06:52.969Z,11.82
2022-09-01T19:09:29.552Z,12.18
2022-09-01T19:12:10.496Z,12.50
2022-09-01T19:14:46.258Z,12.27
2022-09-01T19:17:42.815Z,11.90
2022-09-01T19:20:12.561Z,10.90
2022-09-01T19:22:46.045Z,9.85
2022-09-01T19:25:36.632Z,9.45
2022-09-01T19:28:14.309Z,9.10
2022-09-01T19:30:46.006Z,8.00
2022-09-01T19:33:17.314Z,9.63
2022-09-01T19:35:48.059Z,9.60
2022-09-01T19:38:23.728Z,8.65
2022-09-01T19:40:54.646Z,10.77
2022-09-01T19:43:23.803Z,11.07
2022-09-01T19:46:03.564Z,11.07
2022-09-01T19:48:36.208Z,11.90
2022-09-01T19:51:09.508Z,11.10
2022-09-01T19:53:46.169Z,10.85
2022-09-01T19:56:19.952Z,10.77
2022-09-01T19:58:57.305Z,10.13
2022-09-01T20:01:38.633Z,11.93
2022-09-01T20:04:18.080Z,22.15
2022-09-01T20:06:52.098Z,21.50
2022-09-01T20:09:24.779Z,45.38
2022-09-01T20:11:58.467Z,37.15
2022-09-01T20:14:41.616Z,36.63
2022-09-01T20:17:15.737Z,62.88
2022-09-01T20:19:48.604Z,53.92
2022-09-01T20:22:31.151Z,49.90
2022-09-01T20:25:08.336Z,42.78
2022-09-01T20:27:46.850Z,35.13
2022-09-01T20:30:19.416Z,40.97
2022-09-01T20:32:53.199Z,37.55
2022-09-01T20:35:24.531Z,39.50
2022-09-01T20:37:58.694Z,47.70
2022-09-01T20:40:30.735Z,42.15
2022-09-01T20:43:14.807Z,44.03
2022-09-01T20:45:42.650Z,43.50
2022-09-01T20:48:14.282Z,45.97
2022-09-01T20:50:51.590Z,45.83
2022-09-01T20:53:36.601Z,41.55
2022-09-01T20:56:12.152Z,46.28
2022-09-01T20:58:45.379Z,46.60
2022-09-01T21:01:19.183Z,39.72
2022-09-01T21:04:00.736Z,37.30
2022-09-01T21:06:45.705Z,41.50
2022-09-01T21:09:19.917Z,52.92
2022-09-01T21:11:59.484Z,40.20
2022-09-01T21:14:39.997Z,59.08
2022-09-01T21:17:14.303Z,65.40
2022-09-01T21:19:52.549Z,49.40
2022-09-01T21:22:22.431Z,34.10
2022-09-01T21:24:50.568Z,55.55
2022-09-01T21:27:20.257Z,70.63
2022-09-01T21:29:55.295Z,60.40
2022-09-01T21:32:23.622Z,61.15
2022-09-01T21:34:52.956Z,58.95
2022-09-01T21:37:22.376Z,55.80
2022-09-01T21:39:53.094Z,56.47
2022-09-01T21:42:23.276Z,66.38
2022-09-01T21:44:54.301Z,47.63
2022-09-01T21:47:22.333Z,36.95
2022-09-01T21:49:49.935Z,32.88
2022-09-01T21:52:17.591Z,35.95
2022-09-01T21:54:45.149Z,28.60
2022-09-01T21:57:12.624Z,39.88
2022-09-01T21:59:40.121Z,34.72
2022-09-01T22:02:08.995Z,36.08
2022-09-01T22:04:37.407Z,32.92
2022-09-01T22:07:08.236Z,53.25
2022-09-01T22:09:35.841Z,43.55
2022-09-01T22:12:03.966Z,48.42
2022-09-01T22:14:31.427Z,55.67
2022-09-01T22:17:03.961Z,55.67
2022-09-01T22:19:35.297Z,53.58
2022-09-01T22:22:03.125Z,55.58
2022-09-01T22:24:30.623Z,42.17
2022-09-01T22:26:58.147Z,47.72
2022-09-01T22:29:25.998Z,46.33
2022-09-01T22:31:53.703Z,44.05
2022-09-01T22:34:21.190Z,38.20
2022-09-01T22:36:50.789Z,42.53
2022-09-01T22:39:19.315Z,39.13
2022-09-01T22:41:49.376Z,40.40
2022-09-01T22:44:16.987Z,50.85
2022-09-01T22:46:44.583Z,57.72
2022-09-01T22:49:13.120Z,61.88
2022-09-01T22:51:42.587Z,71.25
2022-09-01T22:54:12.271Z,63.43
2022-09-01T22:56:41.619Z,61.90
2022-09-01T22:59:11.614Z,57.33
2022-09-01T23:01:42.338Z,59.27
2022-09-01T23:04:12.953Z,60.50
2022-09-01T23:06:43.667Z,62.43
2022-09-01T23:09:13.056Z,68.38
2022-09-01T23:11:41.342Z,67.47
2022-09-01T23:14:08.841Z,59.90
2022-09-01T23:16:36.726Z,64.82
2022-09-01T23:19:04.885Z,63.70
2022-09-01T23:21:34.530Z,53.85
2022-09-01T23:24:02.595Z,63.78
2022-09-01T23:26:32.739Z,43.97
2022-09-01T23:29:00.627Z,29.53
2022-09-01T23:31:30.548Z,48.25
2022-09-01T23:33:58.784Z,29.27
2022-09-01T23:36:28.118Z,26.05
2022-09-01T23:38:56.233Z,38.30
2022-09-01T23:41:33.143Z,78.33
2022-09-01T23:44:03.320Z,33.43
2022-09-01T23:46:33.266Z,42.10
2022-09-01T23:49:02.208Z,59.08
2022-09-01T23:51:29.976Z,61.45
2022-09-01T23:53:58.096Z,52.13
2022-09-01T23:56:27.434Z,38.37
2022-09-01T23:58:56.643Z,33.50
